createdAt,value
2022-12-16T00:00:04.064Z,11.07
2022-12-16T00:02:32.329Z,11.40
2022-12-16T00:04:59.062Z,12.18
2022-12-16T00:07:25.779Z,12.23
2022-12-16T00:09:52.432Z,11.40
2022-12-16T00:12:19.155Z,12.07
2022-12-16T00:14:45.793Z,10.98
2022-12-16T00:17:12.550Z,12.23
2022-12-16T00:19:39.263Z,11.40
2022-12-16T00:22:05.976Z,10.30
2022-12-16T00:24:32.701Z,10.60
2022-12-16T00:26:59.362Z,11.70
2022-12-16T00:29:26.083Z,11.10
2022-12-16T00:31:52.784Z,11.15
2022-12-16T00:34:20.666Z,10.85
2022-12-16T00:36:47.378Z,11.73
2022-12-16T00:39:14.235Z,11.98
2022-12-16T00:41:40.883Z,11.05
2022-12-16T00:44:07.534Z,11.40
2022-12-16T00:46:35.151Z,10.70
2022-12-16T00:49:01.805Z,12.43
2022-12-16T00:51:28.446Z,12.98
2022-12-16T00:53:55.114Z,9.20
2022-12-16T00:56:21.774Z,10.90
2022-12-16T00:58:48.466Z,11.82
2022-12-16T01:01:15.209Z,11.02
2022-12-16T01:03:42.237Z,8.45
2022-12-16T01:06:14.665Z,8.95
2022-12-16T01:08:48.091Z,9.75
2022-12-16T01:11:17.064Z,14.85
2022-12-16T01:13:44.423Z,14.48
2022-12-16T01:16:11.188Z,14.65
2022-12-16T01:18:38.265Z,13.85
2022-12-16T01:21:07.319Z,13.40
2022-12-16T01:23:35.476Z,14.10
2022-12-16T01:26:02.760Z,13.27
2022-12-16T01:28:30.357Z,14.10
2022-12-16T01:31:01.452Z,12.70
2022-12-16T01:33:30.638Z,12.65
2022-12-16T01:36:06.561Z,12.85
2022-12-16T01:38:33.492Z,13.80
2022-12-16T01:41:01.117Z,14.35
2022-12-16T01:43:30.538Z,13.27
2022-12-16T01:46:15.706Z,15.27
2022-12-16T01:48:50.151Z,12.85
2022-12-16T01:51:26.576Z,11.98
2022-12-16T01:54:02.621Z,12.68
2022-12-16T01:56:32.900Z,12.80
2022-12-16T01:59:00.490Z,11.52
2022-12-16T02:01:27.299Z,12.02
2022-12-16T02:03:57.421Z,12.20
2022-12-16T02:06:24.311Z,12.52
2022-12-16T02:08:56.706Z,13.20
2022-12-16T02:12:01.235Z,12.65
2022-12-16T02:15:08.875Z,12.60
2022-12-16T02:17:43.995Z,11.80
2022-12-16T02:20:26.406Z,11.30
2022-12-16T02:23:14.128Z,11.90
2022-12-16T02:26:15.792Z,11.07
2022-12-16T02:29:10.204Z,10.27
2022-12-16T02:31:51.796Z,11.68
2022-12-16T02:34:31.956Z,11.63
2022-12-16T02:37:30.761Z,11.68
2022-12-16T02:40:04.092Z,10.15
2022-12-16T02:42:35.781Z,10.13
2022-12-16T02:45:19.732Z,8.70
2022-12-16T02:47:46.944Z,9.75
2022-12-16T02:50:36.246Z,8.73
2022-12-16T02:53:04.324Z,9.55
2022-12-16T02:55:38.969Z,9.02
2022-12-16T02:58:15.133Z,9.50
2022-12-16T03:00:56.433Z,9.85
2022-12-16T03:03:33.416Z,11.07
2022-12-16T03:06:01.977Z,10.18
2022-12-16T03:08:36.792Z,11.35
2022-12-16T03:11:06.696Z,10.85
2022-12-16T03:13:38.865Z,10.27
2022-12-16T03:16:07.356Z,10.27
2022-12-16T03:18:35.840Z,10.23
2022-12-16T03:21:05.652Z,9.55
2022-12-16T03:23:40.248Z,9.02
2022-12-16T03:26:12.356Z,9.32
2022-12-16T03:28:42.680Z,9.75
2022-12-16T03:31:40.728Z,10.40
2022-12-16T03:34:16.450Z,9.88
2022-12-16T03:36:45.256Z,8.60
2022-12-16T03:39:12.554Z,8.63
2022-12-16T03:41:39.762Z,8.80
2022-12-16T03:44:08.016Z,9.40
2022-12-16T03:46:34.843Z,7.97
2022-12-16T03:49:01.571Z,7.65
2022-12-16T03:51:28.278Z,8.10
2022-12-16T03:53:54.908Z,7.72
2022-12-16T03:56:21.610Z,7.65
2022-12-16T03:58:48.254Z,7.57
2022-12-16T04:01:15.564Z,8.05
2022-12-16T04:03:42.307Z,7.90
2022-12-16T04:06:09.074Z,7.63
2022-12-16T04:08:35.999Z,8.30
2022-12-16T04:11:21.121Z,8.32
2022-12-16T04:14:06.566Z,7.95
2022-12-16T04:16:52.032Z,6.65
2022-12-16T04:19:42.427Z,8.07
2022-12-16T04:22:33.335Z,8.70
2022-12-16T04:25:06.308Z,7.72
2022-12-16T04:27:33.013Z,7.93
2022-12-16T04:30:18.125Z,7.55
2022-12-16T04:33:04.336Z,6.60
2022-12-16T04:35:49.625Z,6.00
2022-12-16T04:38:35.053Z,6.57
2022-12-16T04:41:20.577Z,6.25
2022-12-16T04:44:06.765Z,5.95
2022-12-16T04:46:52.256Z,6.55
2022-12-16T04:49:37.491Z,6.70
2022-12-16T04:52:23.518Z,6.13
2022-12-16T04:55:09.170Z,6.35
2022-12-16T04:57:54.510Z,7.18
2022-12-16T05:00:39.987Z,7.28
2022-12-16T05:03:25.345Z,7.38
2022-12-16T05:06:10.592Z,8.52
2022-12-16T05:08:56.110Z,7.05
2022-12-16T05:11:41.619Z,6.28
2022-12-16T05:14:26.956Z,7.85
2022-12-16T05:17:13.438Z,6.85
2022-12-16T05:19:58.853Z,6.35
2022-12-16T05:22:44.364Z,6.65
2022-12-16T05:25:29.685Z,5.97
2022-12-16T05:28:16.224Z,6.18
2022-12-16T05:31:01.340Z,6.22
2022-12-16T05:33:46.429Z,5.90
2022-12-16T05:36:31.848Z,5.50
2022-12-16T05:39:17.287Z,6.75
2022-12-16T05:42:02.661Z,6.40
2022-12-16T05:44:48.157Z,6.72
2022-12-16T05:47:33.759Z,6.30
2022-12-16T05:50:18.972Z,6.80
2022-12-16T05:53:12.062Z,7.10
2022-12-16T05:55:57.527Z,6.60
2022-12-16T05:58:43.453Z,6.47
2022-12-16T06:01:28.853Z,7.22
2022-12-16T06:04:17.442Z,6.75
2022-12-16T06:07:03.006Z,6.50
2022-12-16T06:09:53.137Z,7.32
2022-12-16T06:12:41.587Z,6.50
2022-12-16T06:15:27.585Z,5.78
2022-12-16T06:18:13.126Z,5.68
2022-12-16T06:21:15.203Z,6.70
2022-12-16T06:24:00.352Z,5.82
2022-12-16T06:26:45.709Z,5.75
2022-12-16T06:29:31.228Z,8.25
2022-12-16T06:32:16.642Z,6.07
2022-12-16T06:35:01.971Z,6.38
2022-12-16T06:37:55.154Z,7.38
2022-12-16T06:40:40.684Z,6.35
2022-12-16T06:43:26.209Z,6.15
2022-12-16T06:46:11.684Z,6.32
2022-12-16T06:48:56.862Z,9.48
2022-12-16T06:51:42.288Z,8.50
2022-12-16T06:54:38.316Z,7.05
2022-12-16T06:57:23.718Z,8.60
2022-12-16T07:00:09.323Z,7.00
2022-12-16T07:02:54.771Z,8.93
2022-12-16T07:05:40.160Z,9.20
2022-12-16T07:08:25.534Z,9.27
2022-12-16T07:11:16.686Z,6.07
2022-12-16T07:14:02.980Z,6.07
2022-12-16T07:16:48.610Z,6.50
2022-12-16T07:19:34.681Z,8.63
2022-12-16T07:22:20.170Z,7.63
2022-12-16T07:25:05.349Z,6.78
2022-12-16T07:27:50.575Z,6.07
2022-12-16T07:30:36.054Z,6.38
2022-12-16T07:33:21.439Z,6.85
2022-12-16T07:36:06.625Z,6.28
2022-12-16T07:38:51.976Z,5.90
2022-12-16T07:41:37.386Z,6.78
2022-12-16T07:44:22.781Z,7.68
2022-12-16T07:47:08.199Z,5.97
2022-12-16T07:49:53.622Z,8.48
2022-12-16T07:52:40.920Z,9.45
2022-12-16T07:55:26.515Z,8.93
2022-12-16T07:58:12.190Z,8.07
2022-12-16T08:00:57.635Z,7.28
2022-12-16T08:03:42.960Z,7.90
2022-12-16T08:06:28.340Z,7.65
2022-12-16T08:09:13.925Z,8.13
2022-12-16T08:11:59.438Z,8.27
2022-12-16T08:14:44.749Z,8.57
2022-12-16T08:17:30.234Z,8.60
2022-12-16T08:20:15.694Z,6.85
2022-12-16T08:23:01.298Z,7.82
2022-12-16T08:25:46.827Z,7.93
2022-12-16T08:28:32.160Z,12.00
2022-12-16T08:31:17.636Z,11.05
2022-12-16T08:34:03.046Z,12.13
2022-12-16T08:36:48.568Z,9.63
2022-12-16T08:39:34.075Z,15.18
2022-12-16T08:42:19.468Z,12.18
2022-12-16T08:45:04.871Z,9.95
2022-12-16T08:47:50.301Z,10.15
2022-12-16T08:50:35.804Z,10.18
2022-12-16T08:53:21.135Z,8.45
2022-12-16T08:56:06.598Z,7.88
2022-12-16T08:58:52.130Z,6.65
2022-12-16T09:01:38.082Z,7.50
2022-12-16T09:04:27.901Z,7.53
2022-12-16T09:07:13.349Z,6.43
2022-12-16T09:09:58.899Z,6.15
2022-12-16T09:12:44.462Z,6.45
2022-12-16T09:15:29.878Z,7.35
2022-12-16T09:18:15.636Z,7.07
2022-12-16T09:21:01.393Z,8.13
2022-12-16T09:23:46.826Z,7.75
2022-12-16T09:26:32.404Z,9.68
2022-12-16T09:29:17.605Z,10.27
2022-12-16T09:32:03.140Z,16.40
2022-12-16T09:34:48.630Z,10.50
2022-12-16T09:37:33.999Z,9.43
2022-12-16T09:40:20.927Z,10.25
2022-12-16T09:43:18.330Z,9.70
2022-12-16T09:46:31.449Z,10.65
2022-12-16T09:49:31.695Z,14.38
2022-12-16T09:52:19.580Z,10.90
2022-12-16T09:55:06.025Z,10.02
2022-12-16T09:57:54.038Z,9.75
2022-12-16T10:00:46.015Z,10.07
2022-12-16T10:03:57.333Z,12.98
2022-12-16T10:07:01.863Z,10.93
2022-12-16T10:10:00.824Z,12.75
2022-12-16T10:13:09.091Z,11.52
2022-12-16T10:16:23.248Z,10.40
2022-12-16T10:19:22.172Z,9.32
2022-12-16T10:22:21.694Z,9.10
2022-12-16T10:25:24.795Z,9.37
2022-12-16T10:28:16.630Z,9.20
2022-12-16T10:31:02.279Z,8.23
2022-12-16T10:33:48.313Z,8.05
2022-12-16T10:36:39.246Z,8.23
2022-12-16T10:39:50.811Z,8.97
2022-12-16T10:42:49.182Z,8.45
2022-12-16T10:45:44.214Z,8.53
2022-12-16T10:48:30.290Z,7.23
2022-12-16T10:51:18.681Z,7.10
2022-12-16T10:54:07.611Z,7.57
2022-12-16T10:57:19.413Z,7.23
2022-12-16T11:00:04.686Z,7.73
2022-12-16T11:02:50.436Z,7.00
2022-12-16T11:05:51.848Z,7.07
2022-12-16T11:08:46.549Z,7.20
2022-12-16T11:11:46.016Z,7.00
2022-12-16T11:15:05.715Z,5.67
2022-12-16T11:17:51.867Z,6.50
2022-12-16T11:20:42.988Z,5.20
2022-12-16T11:23:34.079Z,5.33
2022-12-16T11:26:23.651Z,3.80
2022-12-16T11:29:23.877Z,4.83
2022-12-16T11:32:16.031Z,5.47
2022-12-16T11:35:04.976Z,4.90
2022-12-16T11:37:51.708Z,3.50
2022-12-16T11:40:37.716Z,2.27
2022-12-16T11:43:24.643Z,2.50
2022-12-16T11:46:11.550Z,2.30
2022-12-16T11:48:59.145Z,2.23
2022-12-16T11:51:46.933Z,2.57
2022-12-16T11:54:39.751Z,3.00
2022-12-16T11:57:35.896Z,2.27
2022-12-16T12:00:34.187Z,2.53
2022-12-16T12:03:35.142Z,2.00
2022-12-16T12:06:42.801Z,2.17
2022-12-16T12:09:41.289Z,2.20
2022-12-16T12:12:51.166Z,2.23
2022-12-16T12:16:01.980Z,2.10
2022-12-16T12:19:15.124Z,2.50
2022-12-16T12:22:38.028Z,2.70
2022-12-16T12:25:28.961Z,2.17
2022-12-16T12:28:55.588Z,2.50
2022-12-16T12:32:05.956Z,18.47
2022-12-16T12:35:11.528Z,4.83
2022-12-16T12:38:15.284Z,2.10
2022-12-16T12:41:13.591Z,3.37
2022-12-16T12:44:42.383Z,1.90
2022-12-16T12:47:35.652Z,1.60
2022-12-16T12:50:32.234Z,1.83
2022-12-16T12:53:29.229Z,2.20
2022-12-16T12:56:45.411Z,3.23
2022-12-16T12:59:45.004Z,2.10
2022-12-16T13:02:41.675Z,2.43
2022-12-16T13:05:32.590Z,2.30
2022-12-16T13:08:49.587Z,2.27
2022-12-16T13:11:35.629Z,1.97
2022-12-16T13:14:21.287Z,2.37
2022-12-16T13:17:20.340Z,2.53
2022-12-16T13:20:13.336Z,2.63
2022-12-16T13:22:58.729Z,2.33
2022-12-16T13:26:10.147Z,2.03
2022-12-16T13:28:58.188Z,3.00
2022-12-16T13:31:46.300Z,6.57
2022-12-16T13:34:34.399Z,3.63
2022-12-16T13:37:28.359Z,2.33
2022-12-16T13:40:25.784Z,2.47
2022-12-16T13:43:12.745Z,2.53
2022-12-16T13:46:23.935Z,2.10
2022-12-16T13:49:09.196Z,2.43
2022-12-16T13:51:57.237Z,9.80
2022-12-16T13:54:55.292Z,2.57
2022-12-16T13:57:43.248Z,2.67
2022-12-16T14:00:48.088Z,2.60
2022-12-16T14:03:38.576Z,2.73
2022-12-16T14:06:34.629Z,2.50
2022-12-16T14:09:22.858Z,2.43
2022-12-16T14:12:50.200Z,2.17
2022-12-16T14:15:59.930Z,2.00
2022-12-16T14:19:09.639Z,2.50
2022-12-16T14:22:06.198Z,2.47
2022-12-16T14:24:52.675Z,3.47
2022-12-16T14:27:40.227Z,3.10
2022-12-16T14:30:51.770Z,2.73
2022-12-16T14:33:46.127Z,2.90
2022-12-16T14:36:47.285Z,3.77
2022-12-16T14:39:40.518Z,4.20
2022-12-16T14:42:52.089Z,3.13
2022-12-16T14:45:54.965Z,4.80
2022-12-16T14:48:49.543Z,5.30
2022-12-16T14:51:41.566Z,4.00
2022-12-16T14:55:01.519Z,3.30
2022-12-16T14:57:49.592Z,3.47
2022-12-16T15:00:37.159Z,3.47
2022-12-16T15:03:37.468Z,3.77
2022-12-16T15:06:26.203Z,3.80
2022-12-16T15:09:15.993Z,4.40
2022-12-16T15:12:02.614Z,3.90
2022-12-16T15:14:59.265Z,4.20
2022-12-16T15:18:06.773Z,3.70
2022-12-16T15:20:55.887Z,19.50
2022-12-16T15:23:44.882Z,19.27
2022-12-16T15:26:37.354Z,7.27
2022-12-16T15:29:23.062Z,5.60
2022-12-16T15:32:10.108Z,4.93
2022-12-16T15:35:07.073Z,6.43
2022-12-16T15:38:03.876Z,5.10
2022-12-16T15:40:52.432Z,4.07
2022-12-16T15:43:52.597Z,4.00
2022-12-16T15:46:46.353Z,7.93
2022-12-16T15:49:46.852Z,6.87
2022-12-16T15:52:50.925Z,6.43
2022-12-16T15:55:50.470Z,4.70
2022-12-16T15:58:47.767Z,4.07
2022-12-16T16:01:37.357Z,4.17
2022-12-16T16:04:34.018Z,7.10
2022-12-16T16:07:19.335Z,5.70
2022-12-16T16:10:04.861Z,6.70
2022-12-16T16:12:50.217Z,6.83
2022-12-16T16:15:35.814Z,6.73
2022-12-16T16:18:24.822Z,6.00
2022-12-16T16:21:10.376Z,6.03
2022-12-16T16:23:55.788Z,5.90
2022-12-16T16:26:44.898Z,5.90
2022-12-16T16:29:30.474Z,6.60
2022-12-16T16:32:15.904Z,6.23
2022-12-16T16:35:01.332Z,6.17
2022-12-16T16:37:46.830Z,6.37
2022-12-16T16:40:49.096Z,6.47
2022-12-16T16:43:35.022Z,7.07
2022-12-16T16:46:24.616Z,8.30
2022-12-16T16:49:09.788Z,8.47
2022-12-16T16:51:55.048Z,8.50
2022-12-16T16:54:40.565Z,9.63
2022-12-16T16:57:27.817Z,9.00
2022-12-16T17:00:13.281Z,7.70
2022-12-16T17:02:58.939Z,8.30
2022-12-16T17:05:44.176Z,7.63
2022-12-16T17:08:29.641Z,7.00
2022-12-16T17:11:15.112Z,7.45
2022-12-16T17:14:00.586Z,8.20
2022-12-16T17:16:46.113Z,7.40
2022-12-16T17:19:31.350Z,8.38
2022-12-16T17:22:16.681Z,8.40
2022-12-16T17:25:01.995Z,8.07
2022-12-16T17:27:47.430Z,8.07
2022-12-16T17:30:46.604Z,9.35
2022-12-16T17:33:36.686Z,9.95
2022-12-16T17:36:26.047Z,7.80
2022-12-16T17:39:13.794Z,8.13
2022-12-16T17:41:59.237Z,8.30
2022-12-16T17:44:45.119Z,7.82
2022-12-16T17:47:30.572Z,6.70
2022-12-16T17:50:18.861Z,7.00
2022-12-16T17:53:04.496Z,6.93
2022-12-16T17:55:50.116Z,7.75
2022-12-16T17:58:35.210Z,6.75
2022-12-16T18:01:22.184Z,6.38
2022-12-16T18:04:07.408Z,8.00
2022-12-16T18:06:52.919Z,7.55
2022-12-16T18:09:38.367Z,7.78
2022-12-16T18:12:23.921Z,7.20
2022-12-16T18:15:09.453Z,7.55
2022-12-16T18:17:54.945Z,8.30
2022-12-16T18:20:40.389Z,9.82
2022-12-16T18:23:25.760Z,9.00
2022-12-16T18:26:22.929Z,8.30
2022-12-16T18:29:08.352Z,9.07
2022-12-16T18:31:53.920Z,9.27
2022-12-16T18:34:39.841Z,7.38
2022-12-16T18:37:25.359Z,7.72
2022-12-16T18:40:10.704Z,6.90
2022-12-16T18:42:56.129Z,6.70
2022-12-16T18:45:41.639Z,6.85
2022-12-16T18:48:27.314Z,6.60
2022-12-16T18:51:17.251Z,4.90
2022-12-16T18:54:02.744Z,5.40
2022-12-16T18:56:48.757Z,6.45
2022-12-16T18:59:34.324Z,6.15
2022-12-16T19:02:19.905Z,5.85
2022-12-16T19:05:05.252Z,6.65
2022-12-16T19:07:50.685Z,6.32
2022-12-16T19:10:36.266Z,14.18
2022-12-16T19:13:21.513Z,19.33
2022-12-16T19:16:14.414Z,19.92
2022-12-16T19:19:00.086Z,20.55
2022-12-16T19:21:51.380Z,19.58
2022-12-16T19:24:37.367Z,17.55
2022-12-16T19:27:22.816Z,15.38
2022-12-16T19:30:08.381Z,13.85
2022-12-16T19:32:54.555Z,9.13
2022-12-16T19:35:41.410Z,6.93
2022-12-16T19:38:31.563Z,6.35
2022-12-16T19:41:16.884Z,5.63
2022-12-16T19:44:06.238Z,6.18
2022-12-16T19:46:56.037Z,6.32
2022-12-16T19:49:44.350Z,6.40
2022-12-16T19:52:30.331Z,5.57
2022-12-16T19:55:17.408Z,6.30
2022-12-16T19:58:03.044Z,6.15
2022-12-16T20:00:48.534Z,6.53
2022-12-16T20:03:38.132Z,5.20
2022-12-16T20:06:26.118Z,5.13
2022-12-16T20:09:12.208Z,5.68
2022-12-16T20:11:58.077Z,5.25
2022-12-16T20:14:43.698Z,7.70
2022-12-16T20:17:29.377Z,8.00
2022-12-16T20:20:14.999Z,9.52
2022-12-16T20:23:00.397Z,12.52
2022-12-16T20:25:45.985Z,12.20
2022-12-16T20:28:31.414Z,11.77
2022-12-16T20:31:21.340Z,9.45
2022-12-16T20:34:12.856Z,7.78
2022-12-16T20:36:58.294Z,7.38
2022-12-16T20:39:48.010Z,6.82
2022-12-16T20:42:36.418Z,7.22
2022-12-16T20:45:21.981Z,5.57
2022-12-16T20:48:07.351Z,5.68
2022-12-16T20:50:56.083Z,5.85
2022-12-16T20:53:42.189Z,5.25
2022-12-16T20:56:27.497Z,6.15
2022-12-16T20:59:12.901Z,5.45
2022-12-16T21:02:22.176Z,6.30
2022-12-16T21:05:03.803Z,6.10
2022-12-16T21:07:49.381Z,5.82
2022-12-16T21:10:34.897Z,5.70
2022-12-16T21:13:32.499Z,4.47
2022-12-16T21:16:20.317Z,5.68
2022-12-16T21:19:05.806Z,5.90
2022-12-16T21:21:51.265Z,6.75
2022-12-16T21:24:37.218Z,6.43
2022-12-16T21:27:22.741Z,6.13
2022-12-16T21:30:08.392Z,6.55
2022-12-16T21:32:54.770Z,11.80
2022-12-16T21:35:42.281Z,12.13
2022-12-16T21:38:29.638Z,10.60
2022-12-16T21:41:15.611Z,9.57
2022-12-16T21:44:01.148Z,8.68
2022-12-16T21:46:46.620Z,7.50
2022-12-16T21:49:32.017Z,7.60
2022-12-16T21:52:17.716Z,8.10
2022-12-16T21:55:02.969Z,14.63
2022-12-16T21:57:48.452Z,12.50
2022-12-16T22:00:34.507Z,8.43
2022-12-16T22:03:20.038Z,7.30
2022-12-16T22:06:05.411Z,7.13
2022-12-16T22:08:51.720Z,6.60
2022-12-16T22:11:37.069Z,7.10
2022-12-16T22:14:22.541Z,6.45
2022-12-16T22:17:08.036Z,7.97
2022-12-16T22:19:53.261Z,6.97
2022-12-16T22:22:41.571Z,7.47
2022-12-16T22:25:27.463Z,8.30
2022-12-16T22:28:12.867Z,7.63
2022-12-16T22:30:58.420Z,7.50
2022-12-16T22:33:43.829Z,6.20
2022-12-16T22:36:29.448Z,7.90
2022-12-16T22:39:14.760Z,6.70
2022-12-16T22:42:00.787Z,6.70
2022-12-16T22:44:46.143Z,6.00
2022-12-16T22:47:31.294Z,6.85
2022-12-16T22:50:16.645Z,7.53
2022-12-16T22:53:02.064Z,7.47
2022-12-16T22:55:47.535Z,6.72
2022-12-16T22:58:33.057Z,7.40
2022-12-16T23:01:19.184Z,6.65
2022-12-16T23:04:04.282Z,6.05
2022-12-16T23:06:49.817Z,6.75
2022-12-16T23:09:35.437Z,6.70
2022-12-16T23:12:20.583Z,7.05
2022-12-16T23:15:05.830Z,6.20
2022-12-16T23:17:51.269Z,7.20
2022-12-16T23:20:37.275Z,6.05
2022-12-16T23:23:22.706Z,6.05
2022-12-16T23:26:15.620Z,5.38
2022-12-16T23:29:01.093Z,6.28
2022-12-16T23:31:46.964Z,6.30
2022-12-16T23:34:32.214Z,5.97
2022-12-16T23:37:17.574Z,6.00
2022-12-16T23:40:03.097Z,7.38
2022-12-16T23:42:48.334Z,6.53
2022-12-16T23:45:33.626Z,6.75
2022-12-16T23:48:20.541Z,5.80
2022-12-16T23:51:06.106Z,6.43
2022-12-16T23:53:51.593Z,5.72
2022-12-16T23:56:37.034Z,5.55
2022-12-16T23:59:22.521Z,6.85
